sensor_id;sensor_type;location;lat;lon;timestamp;P1;durP1;ratioP1;P2;durP2;ratioP2
42978;SDS011;28616;44.746;19.678;2022-11-20T00:01:04;25.70;;;15.50;;
42978;SDS011;28616;44.746;19.678;2022-11-20T00:03:37;25.45;;;15.93;;
42978;SDS011;28616;44.746;19.678;2022-11-20T00:06:04;26.45;;;16.42;;
42978;SDS011;28616;44.746;19.678;2022-11-20T00:08:32;23.83;;;14.82;;
42978;SDS011;28616;44.746;19.678;2022-11-20T00:11:02;41.00;;;22.35;;
42978;SDS011;28616;44.746;19.678;2022-11-20T00:13:32;30.90;;;16.45;;
42978;SDS011;28616;44.746;19.678;2022-11-20T00:15:59;28.73;;;17.73;;
42978;SDS011;28616;44.746;19.678;2022-11-20T00:18:26;49.58;;;24.10;;
42978;SDS011;28616;44.746;19.678;2022-11-20T00:20:52;32.20;;;19.13;;
42978;SDS011;28616;44.746;19.678;2022-11-20T00:23:19;34.70;;;19.95;;
42978;SDS011;28616;44.746;19.678;2022-11-20T00:25:45;45.92;;;22.98;;
42978;SDS011;28616;44.746;19.678;2022-11-20T00:28:11;58.50;;;25.17;;
42978;SDS011;28616;44.746;19.678;2022-11-20T00:30:37;39.30;;;21.50;;
42978;SDS011;28616;44.746;19.678;2022-11-20T00:33:02;50.67;;;23.70;;
42978;SDS011;28616;44.746;19.678;2022-11-20T00:35:28;102.43;;;41.75;;
42978;SDS011;28616;44.746;19.678;2022-11-20T00:37:54;47.65;;;24.23;;
42978;SDS011;28616;44.746;19.678;2022-11-20T00:40:20;93.53;;;36.63;;
42978;SDS011;28616;44.746;19.678;2022-11-20T00:42:46;49.58;;;25.83;;
42978;SDS011;28616;44.746;19.678;2022-11-20T00:45:12;35.33;;;21.00;;
42978;SDS011;28616;44.746;19.678;2022-11-20T00:47:37;36.03;;;21.35;;
42978;SDS011;28616;44.746;19.678;2022-11-20T00:50:03;36.88;;;21.88;;
42978;SDS011;28616;44.746;19.678;2022-11-20T00:52:29;47.65;;;25.35;;
42978;SDS011;28616;44.746;19.678;2022-11-20T00:54:55;51.08;;;27.85;;
42978;SDS011;28616;44.746;19.678;2022-11-20T00:57:21;67.32;;;35.38;;
42978;SDS011;28616;44.746;19.678;2022-11-20T00:59:47;80.55;;;39.60;;
42978;SDS011;28616;44.746;19.678;2022-11-20T01:02:12;50.70;;;29.25;;
42978;SDS011;28616;44.746;19.678;2022-11-20T01:04:40;49.67;;;28.65;;
42978;SDS011;28616;44.746;19.678;2022-11-20T01:07:06;67.18;;;35.15;;
42978;SDS011;28616;44.746;19.678;2022-11-20T01:09:32;52.28;;;29.38;;
42978;SDS011;28616;44.746;19.678;2022-11-20T01:11:57;54.67;;;30.33;;
42978;SDS011;28616;44.746;19.678;2022-11-20T01:14:24;45.42;;;27.33;;
42978;SDS011;28616;44.746;19.678;2022-11-20T01:16:50;47.85;;;26.75;;
42978;SDS011;28616;44.746;19.678;2022-11-20T01:19:18;66.30;;;36.58;;
42978;SDS011;28616;44.746;19.678;2022-11-20T01:21:48;89.03;;;45.97;;
42978;SDS011;28616;44.746;19.678;2022-11-20T01:26:46;86.88;;;42.13;;
42978;SDS011;28616;44.746;19.678;2022-11-20T01:29:14;41.85;;;23.77;;
42978;SDS011;28616;44.746;19.678;2022-11-20T01:31:42;39.03;;;22.40;;
42978;SDS011;28616;44.746;19.678;2022-11-20T01:34:09;40.97;;;22.73;;
42978;SDS011;28616;44.746;19.678;2022-11-20T01:39:10;29.77;;;18.15;;
42978;SDS011;28616;44.746;19.678;2022-11-20T01:41:38;32.15;;;19.63;;
42978;SDS011;28616;44.746;19.678;2022-11-20T01:52:42;37.47;;;21.88;;
42978;SDS011;28616;44.746;19.678;2022-11-20T01:55:13;40.03;;;22.20;;
42978;SDS011;28616;44.746;19.678;2022-11-20T01:57:44;48.08;;;29.15;;
42978;SDS011;28616;44.746;19.678;2022-11-20T02:00:13;39.67;;;22.90;;
42978;SDS011;28616;44.746;19.678;2022-11-20T02:02:42;42.58;;;23.85;;
42978;SDS011;28616;44.746;19.678;2022-11-20T02:05:22;34.42;;;21.65;;
42978;SDS011;28616;44.746;19.678;2022-11-20T02:08:04;36.25;;;20.92;;
42978;SDS011;28616;44.746;19.678;2022-11-20T02:10:31;31.77;;;18.30;;
42978;SDS011;28616;44.746;19.678;2022-11-20T02:12:57;34.38;;;20.13;;
42978;SDS011;28616;44.746;19.678;2022-11-20T02:15:42;34.83;;;19.58;;
42978;SDS011;28616;44.746;19.678;2022-11-20T02:18:09;34.78;;;20.42;;
42978;SDS011;28616;44.746;19.678;2022-11-20T02:20:36;38.42;;;21.52;;
42978;SDS011;28616;44.746;19.678;2022-11-20T02:25:31;35.92;;;21.05;;
42978;SDS011;28616;44.746;19.678;2022-11-20T02:28:00;36.97;;;21.95;;
42978;SDS011;28616;44.746;19.678;2022-11-20T02:30:26;37.70;;;21.20;;
42978;SDS011;28616;44.746;19.678;2022-11-20T02:32:52;38.40;;;22.85;;
42978;SDS011;28616;44.746;19.678;2022-11-20T02:37:43;36.13;;;21.98;;
42978;SDS011;28616;44.746;19.678;2022-11-20T02:40:12;42.40;;;22.50;;
42978;SDS011;28616;44.746;19.678;2022-11-20T02:42:38;39.45;;;22.33;;
42978;SDS011;28616;44.746;19.678;2022-11-20T02:45:04;38.50;;;22.65;;
42978;SDS011;28616;44.746;19.678;2022-11-20T02:47:31;40.72;;;23.77;;
42978;SDS011;28616;44.746;19.678;2022-11-20T02:49:57;39.50;;;21.42;;
42978;SDS011;28616;44.746;19.678;2022-11-20T02:52:23;39.90;;;23.23;;
42978;SDS011;28616;44.746;19.678;2022-11-20T02:54:49;42.00;;;22.58;;
42978;SDS011;28616;44.746;19.678;2022-11-20T02:57:15;43.15;;;23.40;;
42978;SDS011;28616;44.746;19.678;2022-11-20T02:59:41;46.55;;;23.73;;
42978;SDS011;28616;44.746;19.678;2022-11-20T03:02:06;44.00;;;23.15;;
42978;SDS011;28616;44.746;19.678;2022-11-20T03:04:32;41.50;;;23.17;;
42978;SDS011;28616;44.746;19.678;2022-11-20T03:06:58;44.17;;;22.35;;
42978;SDS011;28616;44.746;19.678;2022-11-20T03:09:24;47.35;;;23.58;;
42978;SDS011;28616;44.746;19.678;2022-11-20T03:11:49;47.92;;;23.92;;
42978;SDS011;28616;44.746;19.678;2022-11-20T03:14:15;52.92;;;25.80;;
42978;SDS011;28616;44.746;19.678;2022-11-20T03:16:41;53.13;;;27.63;;
42978;SDS011;28616;44.746;19.678;2022-11-20T03:19:07;49.58;;;23.65;;
42978;SDS011;28616;44.746;19.678;2022-11-20T03:21:33;54.22;;;29.67;;
42978;SDS011;28616;44.746;19.678;2022-11-20T03:23:59;51.95;;;28.75;;
42978;SDS011;28616;44.746;19.678;2022-11-20T03:26:25;50.53;;;28.05;;
42978;SDS011;28616;44.746;19.678;2022-11-20T03:28:53;50.63;;;28.40;;
42978;SDS011;28616;44.746;19.678;2022-11-20T03:31:21;50.50;;;27.50;;
42978;SDS011;28616;44.746;19.678;2022-11-20T03:33:49;53.35;;;28.77;;
42978;SDS011;28616;44.746;19.678;2022-11-20T03:36:16;55.75;;;29.25;;
42978;SDS011;28616;44.746;19.678;2022-11-20T03:38:43;61.25;;;30.60;;
42978;SDS011;28616;44.746;19.678;2022-11-20T03:41:13;60.78;;;30.52;;
42978;SDS011;28616;44.746;19.678;2022-11-20T03:43:42;57.00;;;28.45;;
42978;SDS011;28616;44.746;19.678;2022-11-20T03:46:13;56.72;;;29.33;;
42978;SDS011;28616;44.746;19.678;2022-11-20T03:48:38;57.22;;;29.48;;
42978;SDS011;28616;44.746;19.678;2022-11-20T03:51:17;62.75;;;31.55;;
42978;SDS011;28616;44.746;19.678;2022-11-20T03:53:48;61.08;;;28.48;;
42978;SDS011;28616;44.746;19.678;2022-11-20T03:56:16;60.10;;;28.90;;
42978;SDS011;28616;44.746;19.678;2022-11-20T03:58:44;54.00;;;26.67;;
42978;SDS011;28616;44.746;19.678;2022-11-20T04:01:12;63.25;;;29.85;;
42978;SDS011;28616;44.746;19.678;2022-11-20T04:03:46;53.35;;;27.73;;
42978;SDS011;28616;44.746;19.678;2022-11-20T04:06:13;59.28;;;28.63;;
42978;SDS011;28616;44.746;19.678;2022-11-20T04:08:47;58.75;;;27.88;;
42978;SDS011;28616;44.746;19.678;2022-11-20T04:11:14;59.83;;;28.30;;
42978;SDS011;28616;44.746;19.678;2022-11-20T04:13:42;55.15;;;28.88;;
42978;SDS011;28616;44.746;19.678;2022-11-20T04:16:10;59.05;;;27.50;;
42978;SDS011;28616;44.746;19.678;2022-11-20T04:18:36;61.70;;;27.42;;
42978;SDS011;28616;44.746;19.678;2022-11-20T04:21:02;60.58;;;27.77;;
42978;SDS011;28616;44.746;19.678;2022-11-20T04:23:29;56.65;;;27.85;;
42978;SDS011;28616;44.746;19.678;2022-11-20T04:25:59;66.45;;;28.63;;
42978;SDS011;28616;44.746;19.678;2022-11-20T04:28:29;60.15;;;28.67;;
42978;SDS011;28616;44.746;19.678;2022-11-20T04:31:01;204.80;;;71.30;;
42978;SDS011;28616;44.746;19.678;2022-11-20T04:33:31;68.38;;;30.92;;
42978;SDS011;28616;44.746;19.678;2022-11-20T04:36:04;97.57;;;50.80;;
42978;SDS011;28616;44.746;19.678;2022-11-20T04:38:33;83.15;;;47.25;;
42978;SDS011;28616;44.746;19.678;2022-11-20T04:41:01;66.68;;;35.38;;
42978;SDS011;28616;44.746;19.678;2022-11-20T04:43:29;58.47;;;29.30;;
42978;SDS011;28616;44.746;19.678;2022-11-20T04:45:56;55.22;;;25.85;;
42978;SDS011;28616;44.746;19.678;2022-11-20T04:48:22;52.97;;;26.60;;
42978;SDS011;28616;44.746;19.678;2022-11-20T04:50:49;42.30;;;23.23;;
42978;SDS011;28616;44.746;19.678;2022-11-20T04:53:15;49.00;;;23.20;;
42978;SDS011;28616;44.746;19.678;2022-11-20T04:55:40;45.03;;;23.48;;
42978;SDS011;28616;44.746;19.678;2022-11-20T04:58:06;50.95;;;23.25;;
42978;SDS011;28616;44.746;19.678;2022-11-20T05:00:32;46.78;;;24.10;;
42978;SDS011;28616;44.746;19.678;2022-11-20T05:02:58;44.85;;;24.55;;
42978;SDS011;28616;44.746;19.678;2022-11-20T05:05:24;52.53;;;25.77;;
42978;SDS011;28616;44.746;19.678;2022-11-20T05:07:50;45.70;;;23.90;;
42978;SDS011;28616;44.746;19.678;2022-11-20T05:10:15;49.17;;;24.63;;
42978;SDS011;28616;44.746;19.678;2022-11-20T05:12:41;57.13;;;27.00;;
42978;SDS011;28616;44.746;19.678;2022-11-20T05:15:07;53.58;;;28.98;;
42978;SDS011;28616;44.746;19.678;2022-11-20T05:17:33;52.67;;;25.80;;
42978;SDS011;28616;44.746;19.678;2022-11-20T05:19:59;61.38;;;30.27;;
42978;SDS011;28616;44.746;19.678;2022-11-20T05:22:25;54.25;;;27.33;;
42978;SDS011;28616;44.746;19.678;2022-11-20T05:24:51;45.67;;;23.63;;
42978;SDS011;28616;44.746;19.678;2022-11-20T05:27:16;56.85;;;27.30;;
42978;SDS011;28616;44.746;19.678;2022-11-20T05:29:42;48.55;;;24.92;;
42978;SDS011;28616;44.746;19.678;2022-11-20T05:32:08;39.92;;;19.85;;
42978;SDS011;28616;44.746;19.678;2022-11-20T05:34:35;41.85;;;21.02;;
42978;SDS011;28616;44.746;19.678;2022-11-20T05:37:01;41.50;;;18.70;;
42978;SDS011;28616;44.746;19.678;2022-11-20T05:39:27;44.88;;;17.95;;
42978;SDS011;28616;44.746;19.678;2022-11-20T05:41:53;41.85;;;20.77;;
42978;SDS011;28616;44.746;19.678;2022-11-20T05:44:37;44.95;;;18.33;;
42978;SDS011;28616;44.746;19.678;2022-11-20T05:47:03;49.00;;;24.08;;
42978;SDS011;28616;44.746;19.678;2022-11-20T05:49:29;67.05;;;36.53;;
42978;SDS011;28616;44.746;19.678;2022-11-20T05:51:54;62.63;;;32.28;;
42978;SDS011;28616;44.746;19.678;2022-11-20T05:54:20;58.38;;;27.85;;
42978;SDS011;28616;44.746;19.678;2022-11-20T05:56:46;68.07;;;36.90;;
42978;SDS011;28616;44.746;19.678;2022-11-20T05:59:11;75.45;;;39.40;;
42978;SDS011;28616;44.746;19.678;2022-11-20T06:01:37;91.95;;;44.78;;
42978;SDS011;28616;44.746;19.678;2022-11-20T06:04:03;89.32;;;46.42;;
42978;SDS011;28616;44.746;19.678;2022-11-20T06:06:29;106.38;;;55.95;;
42978;SDS011;28616;44.746;19.678;2022-11-20T06:08:54;84.15;;;43.92;;
42978;SDS011;28616;44.746;19.678;2022-11-20T06:11:20;84.18;;;43.50;;
42978;SDS011;28616;44.746;19.678;2022-11-20T06:13:47;69.40;;;38.85;;
42978;SDS011;28616;44.746;19.678;2022-11-20T06:16:14;96.50;;;49.22;;
42978;SDS011;28616;44.746;19.678;2022-11-20T06:18:41;67.93;;;36.65;;
42978;SDS011;28616;44.746;19.678;2022-11-20T06:21:11;76.78;;;40.20;;
42978;SDS011;28616;44.746;19.678;2022-11-20T06:23:47;56.70;;;31.92;;
42978;SDS011;28616;44.746;19.678;2022-11-20T06:26:15;80.47;;;40.72;;
42978;SDS011;28616;44.746;19.678;2022-11-20T06:28:43;66.32;;;34.85;;
42978;SDS011;28616;44.746;19.678;2022-11-20T06:31:10;74.25;;;37.30;;
42978;SDS011;28616;44.746;19.678;2022-11-20T06:33:38;95.50;;;43.67;;
42978;SDS011;28616;44.746;19.678;2022-11-20T06:36:04;75.80;;;36.78;;
42978;SDS011;28616;44.746;19.678;2022-11-20T06:38:30;61.72;;;32.83;;
42978;SDS011;28616;44.746;19.678;2022-11-20T06:40:56;66.97;;;33.38;;
42978;SDS011;28616;44.746;19.678;2022-11-20T06:43:22;67.75;;;34.83;;
42978;SDS011;28616;44.746;19.678;2022-11-20T06:45:54;75.03;;;39.88;;
42978;SDS011;28616;44.746;19.678;2022-11-20T06:48:22;76.28;;;37.45;;
42978;SDS011;28616;44.746;19.678;2022-11-20T06:50:48;64.50;;;33.42;;
42978;SDS011;28616;44.746;19.678;2022-11-20T06:53:14;62.97;;;33.97;;
42978;SDS011;28616;44.746;19.678;2022-11-20T06:55:43;76.32;;;39.55;;
42978;SDS011;28616;44.746;19.678;2022-11-20T06:58:11;67.47;;;37.60;;
42978;SDS011;28616;44.746;19.678;2022-11-20T07:00:37;80.20;;;38.92;;
42978;SDS011;28616;44.746;19.678;2022-11-20T07:03:06;74.25;;;38.60;;
42978;SDS011;28616;44.746;19.678;2022-11-20T07:05:33;54.58;;;28.60;;
42978;SDS011;28616;44.746;19.678;2022-11-20T07:08:00;39.28;;;22.38;;
42978;SDS011;28616;44.746;19.678;2022-11-20T07:10:26;46.72;;;23.65;;
42978;SDS011;28616;44.746;19.678;2022-11-20T07:12:53;47.00;;;25.73;;
42978;SDS011;28616;44.746;19.678;2022-11-20T07:15:19;44.67;;;24.05;;
42978;SDS011;28616;44.746;19.678;2022-11-20T07:17:46;46.45;;;24.85;;
42978;SDS011;28616;44.746;19.678;2022-11-20T07:20:13;57.35;;;32.00;;
42978;SDS011;28616;44.746;19.678;2022-11-20T07:22:39;53.47;;;29.50;;
42978;SDS011;28616;44.746;19.678;2022-11-20T07:25:05;87.47;;;46.10;;
42978;SDS011;28616;44.746;19.678;2022-11-20T07:27:32;66.43;;;34.10;;
42978;SDS011;28616;44.746;19.678;2022-11-20T07:29:57;52.78;;;29.35;;
42978;SDS011;28616;44.746;19.678;2022-11-20T07:32:23;77.45;;;39.80;;
42978;SDS011;28616;44.746;19.678;2022-11-20T07:34:49;68.13;;;37.55;;
42978;SDS011;28616;44.746;19.678;2022-11-20T07:37:15;66.65;;;38.85;;
42978;SDS011;28616;44.746;19.678;2022-11-20T07:39:41;126.43;;;63.03;;
42978;SDS011;28616;44.746;19.678;2022-11-20T07:42:07;64.20;;;35.75;;
42978;SDS011;28616;44.746;19.678;2022-11-20T07:44:34;68.13;;;38.00;;
42978;SDS011;28616;44.746;19.678;2022-11-20T07:47:00;109.65;;;60.58;;
42978;SDS011;28616;44.746;19.678;2022-11-20T07:49:26;160.25;;;81.90;;
42978;SDS011;28616;44.746;19.678;2022-11-20T07:51:52;44.67;;;26.63;;
42978;SDS011;28616;44.746;19.678;2022-11-20T07:54:21;48.05;;;27.52;;
42978;SDS011;28616;44.746;19.678;2022-11-20T07:56:48;37.83;;;21.38;;
42978;SDS011;28616;44.746;19.678;2022-11-20T07:59:14;37.47;;;20.98;;
42978;SDS011;28616;44.746;19.678;2022-11-20T08:01:41;38.65;;;21.83;;
42978;SDS011;28616;44.746;19.678;2022-11-20T08:04:07;75.40;;;35.53;;
42978;SDS011;28616;44.746;19.678;2022-11-20T08:06:34;186.30;;;97.30;;
42978;SDS011;28616;44.746;19.678;2022-11-20T08:09:01;91.78;;;46.38;;
42978;SDS011;28616;44.746;19.678;2022-11-20T08:11:26;81.22;;;45.22;;
42978;SDS011;28616;44.746;19.678;2022-11-20T08:14:11;132.93;;;73.57;;
42978;SDS011;28616;44.746;19.678;2022-11-20T08:16:37;63.33;;;33.45;;
42978;SDS011;28616;44.746;19.678;2022-11-20T08:19:06;49.88;;;27.05;;
42978;SDS011;28616;44.746;19.678;2022-11-20T08:21:33;52.67;;;32.15;;
42978;SDS011;28616;44.746;19.678;2022-11-20T08:23:58;182.05;;;86.22;;
42978;SDS011;28616;44.746;19.678;2022-11-20T08:26:25;108.93;;;60.13;;
42978;SDS011;28616;44.746;19.678;2022-11-20T08:28:57;82.53;;;43.53;;
42978;SDS011;28616;44.746;19.678;2022-11-20T08:31:24;90.40;;;45.40;;
42978;SDS011;28616;44.746;19.678;2022-11-20T08:33:51;63.75;;;34.53;;
42978;SDS011;28616;44.746;19.678;2022-11-20T08:36:19;71.18;;;39.83;;
42978;SDS011;28616;44.746;19.678;2022-11-20T08:38:49;72.07;;;36.58;;
42978;SDS011;28616;44.746;19.678;2022-11-20T08:41:17;90.57;;;41.03;;
42978;SDS011;28616;44.746;19.678;2022-11-20T08:43:51;51.15;;;26.38;;
42978;SDS011;28616;44.746;19.678;2022-11-20T08:46:28;64.60;;;35.60;;
42978;SDS011;28616;44.746;19.678;2022-11-20T08:48:58;87.97;;;42.67;;
42978;SDS011;28616;44.746;19.678;2022-11-20T08:51:24;88.20;;;42.58;;
42978;SDS011;28616;44.746;19.678;2022-11-20T08:53:50;67.85;;;34.45;;
42978;SDS011;28616;44.746;19.678;2022-11-20T08:56:16;109.05;;;52.58;;
42978;SDS011;28616;44.746;19.678;2022-11-20T08:58:42;120.88;;;59.28;;
42978;SDS011;28616;44.746;19.678;2022-11-20T09:01:08;142.57;;;76.45;;
42978;SDS011;28616;44.746;19.678;2022-11-20T09:03:35;88.80;;;49.08;;
42978;SDS011;28616;44.746;19.678;2022-11-20T09:06:01;51.92;;;26.35;;
42978;SDS011;28616;44.746;19.678;2022-11-20T09:08:29;135.50;;;70.93;;
42978;SDS011;28616;44.746;19.678;2022-11-20T09:10:55;163.63;;;97.53;;
42978;SDS011;28616;44.746;19.678;2022-11-20T09:13:22;182.48;;;108.03;;
42978;SDS011;28616;44.746;19.678;2022-11-20T09:15:55;131.63;;;73.72;;
42978;SDS011;28616;44.746;19.678;2022-11-20T09:18:23;131.18;;;66.55;;
42978;SDS011;28616;44.746;19.678;2022-11-20T09:20:49;169.70;;;84.07;;
42978;SDS011;28616;44.746;19.678;2022-11-20T09:23:15;116.72;;;61.75;;
42978;SDS011;28616;44.746;19.678;2022-11-20T09:25:42;98.72;;;52.28;;
42978;SDS011;28616;44.746;19.678;2022-11-20T09:28:08;94.90;;;52.10;;
42978;SDS011;28616;44.746;19.678;2022-11-20T09:30:34;79.18;;;41.70;;
42978;SDS011;28616;44.746;19.678;2022-11-20T09:33:00;111.57;;;67.40;;
42978;SDS011;28616;44.746;19.678;2022-11-20T09:35:26;101.68;;;57.58;;
42978;SDS011;28616;44.746;19.678;2022-11-20T09:37:52;70.93;;;41.22;;
42978;SDS011;28616;44.746;19.678;2022-11-20T09:40:22;103.50;;;51.53;;
42978;SDS011;28616;44.746;19.678;2022-11-20T09:50:30;80.53;;;39.55;;
42978;SDS011;28616;44.746;19.678;2022-11-20T09:55:40;104.50;;;59.47;;
42978;SDS011;28616;44.746;19.678;2022-11-20T09:58:07;72.53;;;42.50;;
42978;SDS011;28616;44.746;19.678;2022-11-20T10:00:41;103.47;;;56.00;;
42978;SDS011;28616;44.746;19.678;2022-11-20T10:03:14;87.50;;;45.90;;
42978;SDS011;28616;44.746;19.678;2022-11-20T10:05:47;85.03;;;47.97;;
42978;SDS011;28616;44.746;19.678;2022-11-20T10:08:19;68.88;;;40.80;;
42978;SDS011;28616;44.746;19.678;2022-11-20T10:13:39;78.28;;;44.22;;
42978;SDS011;28616;44.746;19.678;2022-11-20T10:16:22;77.47;;;47.08;;
42978;SDS011;28616;44.746;19.678;2022-11-20T10:19:04;69.45;;;41.45;;
42978;SDS011;28616;44.746;19.678;2022-11-20T10:21:59;88.70;;;51.47;;
42978;SDS011;28616;44.746;19.678;2022-11-20T10:30:23;91.03;;;52.70;;
42978;SDS011;28616;44.746;19.678;2022-11-20T10:33:01;100.78;;;54.10;;
42978;SDS011;28616;44.746;19.678;2022-11-20T10:38:05;88.85;;;55.22;;
42978;SDS011;28616;44.746;19.678;2022-11-20T10:40:43;70.68;;;40.95;;
42978;SDS011;28616;44.746;19.678;2022-11-20T10:43:16;86.88;;;49.33;;
42978;SDS011;28616;44.746;19.678;2022-11-20T10:45:56;114.05;;;67.45;;
42978;SDS011;28616;44.746;19.678;2022-11-20T10:48:37;108.22;;;59.17;;
42978;SDS011;28616;44.746;19.678;2022-11-20T10:54:22;122.32;;;68.40;;
42978;SDS011;28616;44.746;19.678;2022-11-20T10:57:18;125.95;;;71.22;;
42978;SDS011;28616;44.746;19.678;2022-11-20T10:59:59;167.60;;;96.15;;
42978;SDS011;28616;44.746;19.678;2022-11-20T11:03:13;108.90;;;64.45;;
42978;SDS011;28616;44.746;19.678;2022-11-20T11:07:45;114.60;;;66.68;;
42978;SDS011;28616;44.746;19.678;2022-11-20T11:13:00;86.90;;;47.20;;
42978;SDS011;28616;44.746;19.678;2022-11-20T11:15:44;127.38;;;76.68;;
42978;SDS011;28616;44.746;19.678;2022-11-20T11:18:10;99.28;;;56.28;;
42978;SDS011;28616;44.746;19.678;2022-11-20T11:20:37;73.10;;;43.90;;
42978;SDS011;28616;44.746;19.678;2022-11-20T11:23:03;97.40;;;55.63;;
42978;SDS011;28616;44.746;19.678;2022-11-20T11:25:32;118.75;;;73.03;;
42978;SDS011;28616;44.746;19.678;2022-11-20T11:28:05;122.65;;;71.00;;
42978;SDS011;28616;44.746;19.678;2022-11-20T11:30:46;127.65;;;68.78;;
42978;SDS011;28616;44.746;19.678;2022-11-20T11:33:24;110.07;;;63.50;;
42978;SDS011;28616;44.746;19.678;2022-11-20T11:38:39;95.80;;;52.80;;
42978;SDS011;28616;44.746;19.678;2022-11-20T11:41:09;80.25;;;39.03;;
42978;SDS011;28616;44.746;19.678;2022-11-20T11:43:48;76.70;;;41.65;;
42978;SDS011;28616;44.746;19.678;2022-11-20T11:46:38;83.72;;;47.30;;
42978;SDS011;28616;44.746;19.678;2022-11-20T11:54:24;80.60;;;44.28;;
42978;SDS011;28616;44.746;19.678;2022-11-20T11:56:50;85.00;;;51.95;;
42978;SDS011;28616;44.746;19.678;2022-11-20T11:59:28;71.18;;;40.20;;
42978;SDS011;28616;44.746;19.678;2022-11-20T12:02:19;72.32;;;35.83;;
42978;SDS011;28616;44.746;19.678;2022-11-20T12:04:52;88.90;;;47.53;;
42978;SDS011;28616;44.746;19.678;2022-11-20T12:10:14;71.78;;;39.38;;
42978;SDS011;28616;44.746;19.678;2022-11-20T12:12:47;83.45;;;43.17;;
42978;SDS011;28616;44.746;19.678;2022-11-20T12:15:23;63.33;;;36.15;;
42978;SDS011;28616;44.746;19.678;2022-11-20T12:17:53;70.30;;;37.50;;
42978;SDS011;28616;44.746;19.678;2022-11-20T12:20:20;67.22;;;36.28;;
42978;SDS011;28616;44.746;19.678;2022-11-20T12:26:01;129.30;;;73.88;;
42978;SDS011;28616;44.746;19.678;2022-11-20T12:36:16;157.13;;;89.10;;
42978;SDS011;28616;44.746;19.678;2022-11-20T12:44:51;140.18;;;76.53;;
42978;SDS011;28616;44.746;19.678;2022-11-20T12:50:26;89.95;;;48.67;;
42978;SDS011;28616;44.746;19.678;2022-11-20T12:56:06;110.50;;;58.03;;
42978;SDS011;28616;44.746;19.678;2022-11-20T13:01:40;113.75;;;55.75;;
42978;SDS011;28616;44.746;19.678;2022-11-20T13:06:59;131.50;;;66.07;;
42978;SDS011;28616;44.746;19.678;2022-11-20T13:09:27;118.55;;;57.10;;
42978;SDS011;28616;44.746;19.678;2022-11-20T13:14:52;123.28;;;62.13;;
42978;SDS011;28616;44.746;19.678;2022-11-20T13:17:54;141.07;;;73.47;;
42978;SDS011;28616;44.746;19.678;2022-11-20T13:20:23;168.13;;;85.43;;
42978;SDS011;28616;44.746;19.678;2022-11-20T13:22:50;177.57;;;89.03;;
42978;SDS011;28616;44.746;19.678;2022-11-20T13:27:55;139.40;;;65.15;;
42978;SDS011;28616;44.746;19.678;2022-11-20T13:30:23;138.85;;;64.22;;
42978;SDS011;28616;44.746;19.678;2022-11-20T13:32:54;145.73;;;66.72;;
42978;SDS011;28616;44.746;19.678;2022-11-20T13:35:28;155.45;;;71.53;;
42978;SDS011;28616;44.746;19.678;2022-11-20T13:38:02;169.45;;;81.57;;
42978;SDS011;28616;44.746;19.678;2022-11-20T13:40:34;148.93;;;73.38;;
42978;SDS011;28616;44.746;19.678;2022-11-20T13:45:57;139.90;;;69.68;;
42978;SDS011;28616;44.746;19.678;2022-11-20T13:48:32;149.25;;;73.95;;
42978;SDS011;28616;44.746;19.678;2022-11-20T14:02:40;184.10;;;100.55;;
42978;SDS011;28616;44.746;19.678;2022-11-20T14:05:13;150.25;;;76.88;;
42978;SDS011;28616;44.746;19.678;2022-11-20T14:07:45;171.18;;;82.88;;
42978;SDS011;28616;44.746;19.678;2022-11-20T14:10:22;149.88;;;69.50;;
42978;SDS011;28616;44.746;19.678;2022-11-20T14:12:52;145.82;;;67.47;;
42978;SDS011;28616;44.746;19.678;2022-11-20T14:15:25;122.07;;;63.47;;
42978;SDS011;28616;44.746;19.678;2022-11-20T14:17:59;128.82;;;68.47;;
42978;SDS011;28616;44.746;19.678;2022-11-20T14:20:28;137.93;;;70.82;;
42978;SDS011;28616;44.746;19.678;2022-11-20T14:22:56;153.27;;;81.70;;
42978;SDS011;28616;44.746;19.678;2022-11-20T14:25:23;195.68;;;109.20;;
42978;SDS011;28616;44.746;19.678;2022-11-20T14:27:59;243.43;;;128.68;;
42978;SDS011;28616;44.746;19.678;2022-11-20T14:30:35;204.02;;;104.50;;
42978;SDS011;28616;44.746;19.678;2022-11-20T14:33:09;195.05;;;107.15;;
42978;SDS011;28616;44.746;19.678;2022-11-20T14:35:40;172.43;;;90.68;;
42978;SDS011;28616;44.746;19.678;2022-11-20T14:38:14;163.43;;;86.55;;
42978;SDS011;28616;44.746;19.678;2022-11-20T14:40:43;181.13;;;99.50;;
42978;SDS011;28616;44.746;19.678;2022-11-20T14:43:44;173.18;;;88.15;;
42978;SDS011;28616;44.746;19.678;2022-11-20T14:46:03;180.65;;;93.65;;
42978;SDS011;28616;44.746;19.678;2022-11-20T14:48:39;190.70;;;97.55;;
42978;SDS011;28616;44.746;19.678;2022-11-20T14:51:23;160.25;;;82.30;;
42978;SDS011;28616;44.746;19.678;2022-11-20T14:56:37;219.95;;;115.05;;
42978;SDS011;28616;44.746;19.678;2022-11-20T14:59:03;298.10;;;170.88;;
42978;SDS011;28616;44.746;19.678;2022-11-20T15:01:29;200.18;;;107.90;;
42978;SDS011;28616;44.746;19.678;2022-11-20T15:04:00;124.32;;;64.85;;
42978;SDS011;28616;44.746;19.678;2022-11-20T15:06:35;156.80;;;86.43;;
42978;SDS011;28616;44.746;19.678;2022-11-20T15:09:02;149.77;;;77.28;;
42978;SDS011;28616;44.746;19.678;2022-11-20T15:11:30;143.88;;;70.22;;
42978;SDS011;28616;44.746;19.678;2022-11-20T15:14:02;174.65;;;84.20;;
42978;SDS011;28616;44.746;19.678;2022-11-20T15:16:30;144.07;;;66.60;;
42978;SDS011;28616;44.746;19.678;2022-11-20T15:18:56;128.45;;;63.97;;
42978;SDS011;28616;44.746;19.678;2022-11-20T15:21:22;153.02;;;73.75;;
42978;SDS011;28616;44.746;19.678;2022-11-20T15:23:49;151.50;;;77.00;;
42978;SDS011;28616;44.746;19.678;2022-11-20T15:26:21;160.10;;;78.35;;
42978;SDS011;28616;44.746;19.678;2022-11-20T15:28:51;141.07;;;67.13;;
42978;SDS011;28616;44.746;19.678;2022-11-20T15:31:18;123.30;;;61.08;;
42978;SDS011;28616;44.746;19.678;2022-11-20T15:33:46;109.60;;;53.33;;
42978;SDS011;28616;44.746;19.678;2022-11-20T15:36:12;111.95;;;55.67;;
42978;SDS011;28616;44.746;19.678;2022-11-20T15:38:38;134.00;;;65.32;;
42978;SDS011;28616;44.746;19.678;2022-11-20T15:41:04;159.90;;;77.35;;
42978;SDS011;28616;44.746;19.678;2022-11-20T15:43:30;228.02;;;111.03;;
42978;SDS011;28616;44.746;19.678;2022-11-20T15:45:57;170.00;;;85.95;;
42978;SDS011;28616;44.746;19.678;2022-11-20T15:48:29;161.20;;;81.30;;
42978;SDS011;28616;44.746;19.678;2022-11-20T15:51:27;140.38;;;70.57;;
42978;SDS011;28616;44.746;19.678;2022-11-20T15:53:55;147.60;;;72.55;;
42978;SDS011;28616;44.746;19.678;2022-11-20T15:56:21;151.75;;;76.95;;
42978;SDS011;28616;44.746;19.678;2022-11-20T15:58:48;182.45;;;90.85;;
42978;SDS011;28616;44.746;19.678;2022-11-20T16:01:17;276.08;;;153.57;;
42978;SDS011;28616;44.746;19.678;2022-11-20T16:03:45;333.38;;;181.43;;
42978;SDS011;28616;44.746;19.678;2022-11-20T16:06:11;393.15;;;208.88;;